Cheshire, Massachusetts
Current Conditions -  °F | °C
As of 2:52 PM on Friday 28 Nov 2014 (Local Time) from KAQW Reporting Station
Overcast Overcast  
Wind Chill: 14°   Ceiling: 3300
Heat Index: 27°   Visibility: 10mi
Dew Point: 19°   Wind: 18mph
Humidity: 72%   Direction: 270°W
Pressure: 30.1"   Gusts: 25mph
Location:  42.56°N, 73.16°W
Report Text: KAQW 281952Z AUTO 27016G22KT 10SM BKN033 BKN040 OVC047 M03/M07 A3010 RMK AO2 SNB13E24 SLP204 P0000 T10281072
Loading
Personal Weather Stations






























Interactive Weather Map New forecast layout! Learn more

10-Day Weather Forecast

Advertisements
Track Severe Weather on mobile